Time;durP1;ratioP1;P1;durP2;ratioP2;P2;SDS_P1;SDS_P2;PMS_P1;PMS_P2;Temp;Humidity;BMP_temperature;BMP_pressure;BME280_temperature;BME280_humidity;BME280_pressure;Samples;Min_cycle;Max_cycle;Signal;HPM_P1;HPM_P2
2021/05/09 00:00:46;;;;;;;2.77;2.00;;;;;;;11.30;100.00;100157.13;4956601;28;20229;-74
2021/05/09 00:03:12;;;;;;;2.53;1.90;;;;;;;11.23;100.00;100157.47;4956826;28;20315;-73
2021/05/09 00:05:45;;;;;;;3.50;2.07;;;;;;;11.32;100.00;100144.88;4988928;28;20863;-73
2021/05/09 00:08:12;;;;;;;1.70;1.50;;;;;;;11.25;100.00;100158.00;4989182;28;20265;-73
2021/05/09 00:10:46;;;;;;;2.07;1.90;;;;;;;11.29;100.00;100155.53;4973897;28;20270;-74
2021/05/09 00:13:11;;;;;;;1.83;1.73;;;;;;;11.40;100.00;100157.81;4972174;28;20247;-73
2021/05/09 00:15:37;;;;;;;2.67;1.80;;;;;;;11.31;100.00;100156.03;4972776;28;20225;-74
2021/05/09 00:18:05;;;;;;;1.93;1.70;;;;;;;11.37;100.00;100153.00;4993369;28;20216;-73
2021/05/09 00:20:33;;;;;;;1.70;1.60;;;;;;;11.37;100.00;100153.00;4976896;28;20301;-73
2021/05/09 00:23:04;;;;;;;2.60;1.70;;;;;;;11.38;100.00;100148.34;5008203;28;20598;-73
2021/05/09 00:25:30;;;;;;;1.73;1.60;;;;;;;11.41;100.00;100154.03;4976241;28;20232;-73
2021/05/09 00:27:55;;;;;;;2.00;1.80;;;;;;;11.38;100.00;100154.59;4993062;28;20205;-74
2021/05/09 00:30:26;;;;;;;2.70;2.00;;;;;;;11.53;100.00;100151.72;4992563;28;20197;-74
2021/05/09 00:32:52;;;;;;;2.80;1.63;;;;;;;11.48;100.00;100154.50;4976813;28;20204;-75
2021/05/09 00:35:18;;;;;;;4.87;1.83;;;;;;;11.51;100.00;100142.25;5008684;28;20191;-74
2021/05/09 00:37:43;;;;;;;2.00;1.80;;;;;;;11.41;100.00;100143.16;4992699;28;20220;-75
2021/05/09 00:40:10;;;;;;;2.60;1.67;;;;;;;11.50;100.00;100140.59;4976063;28;20181;-74
2021/05/09 00:42:36;;;;;;;3.23;2.00;;;;;;;11.57;100.00;100141.88;4991857;28;20182;-75
2021/05/09 00:45:07;;;;;;;2.20;2.00;;;;;;;11.66;100.00;100145.56;4976161;28;20189;-75
2021/05/09 00:47:35;;;;;;;2.20;2.00;;;;;;;11.66;100.00;100140.13;4976559;28;20208;-74
2021/05/09 00:50:01;;;;;;;2.67;2.00;;;;;;;11.70;100.00;100141.16;4992707;28;20269;-74
2021/05/09 00:52:28;;;;;;;1.70;1.60;;;;;;;11.73;100.00;100137.88;4991193;28;20245;-75
2021/05/09 00:55:12;;;;;;;1.80;1.70;;;;;;;11.59;100.00;100140.50;4992496;28;20225;-74
2021/05/09 00:57:44;;;;;;;2.73;1.67;;;;;;;11.67;100.00;100136.31;4956468;28;20321;-74
2021/05/09 01:00:11;;;;;;;1.63;1.50;;;;;;;11.64;100.00;100139.63;4953794;28;20198;-74
2021/05/09 01:02:36;;;;;;;2.00;1.70;;;;;;;11.81;100.00;100142.66;4975296;28;20237;-75
2021/05/09 01:05:03;;;;;;;1.77;1.43;;;;;;;11.79;100.00;100140.22;4975845;28;20208;-74
2021/05/09 01:07:29;;;;;;;2.30;1.50;;;;;;;11.62;100.00;100141.81;4959817;28;20240;-75
2021/05/09 01:10:01;;;;;;;2.40;2.03;;;;;;;11.80;100.00;100135.59;5008515;28;20256;-75
2021/05/09 01:12:27;;;;;;;2.97;1.60;;;;;;;11.74;100.00;100136.75;4974548;28;20221;-74
2021/05/09 01:14:52;;;;;;;3.03;1.67;;;;;;;11.78;100.00;100137.81;4975805;28;20197;-74
2021/05/09 01:17:18;;;;;;;3.43;1.60;;;;;;;11.71;100.00;100142.78;4959407;28;20316;-74
2021/05/09 01:19:47;;;;;;;1.50;1.40;;;;;;;11.74;100.00;100142.19;4975945;28;20182;-74
2021/05/09 01:22:12;;;;;;;2.40;1.70;;;;;;;11.82;100.00;100138.84;4974310;28;20244;-74
2021/05/09 01:24:41;;;;;;;2.40;1.73;;;;;;;11.78;100.00;100137.81;4975868;28;20205;-74
2021/05/09 01:27:10;;;;;;;1.57;1.47;;;;;;;11.78;100.00;100133.16;4974730;28;20229;-74
2021/05/09 01:29:37;;;;;;;1.70;1.60;;;;;;;11.84;100.00;100142.88;4975788;28;20635;-74
2021/05/09 01:32:07;;;;;;;1.60;1.50;;;;;;;11.74;100.00;100139.47;4990368;28;20304;-74
2021/05/09 01:34:36;;;;;;;3.07;1.90;;;;;;;11.83;100.00;100135.00;4975517;28;20244;-74
2021/05/09 01:37:04;;;;;;;1.60;1.50;;;;;;;11.82;100.00;100133.41;4991857;28;20229;-74
2021/05/09 01:39:32;;;;;;;1.90;1.40;;;;;;;11.75;100.00;100135.66;4991560;28;20201;-73
2021/05/09 01:42:02;;;;;;;2.67;1.53;;;;;;;11.73;100.00;100135.94;4990445;28;20697;-74
2021/05/09 01:44:32;;;;;;;1.70;1.37;;;;;;;11.76;100.00;100129.13;4976580;28;20189;-74
2021/05/09 01:46:57;;;;;;;1.87;1.60;;;;;;;11.82;100.00;100122.50;4991004;28;20619;-74
2021/05/09 01:49:24;;;;;;;3.03;1.50;;;;;;;11.91;100.00;100129.72;4991253;28;20194;-74
2021/05/09 01:51:54;;;;;;;3.00;1.70;;;;;;;11.96;100.00;100124.22;4974114;28;20213;-73
2021/05/09 01:54:25;;;;;;;1.80;1.70;;;;;;;11.84;100.00;100136.63;4991270;28;20213;-74
2021/05/09 01:56:52;;;;;;;1.93;1.50;;;;;;;11.86;100.00;100131.72;4975048;28;20232;-75
2021/05/09 01:59:23;;;;;;;1.97;1.70;;;;;;;11.88;100.00;100133.03;4992269;28;20197;-74
2021/05/09 02:01:50;;;;;;;1.73;1.63;;;;;;;11.91;100.00;100132.44;4973825;28;20702;-74
2021/05/09 02:04:38;;;;;;;1.60;1.50;;;;;;;11.90;100.00;100124.56;4991122;28;20305;-75
2021/05/09 02:07:08;;;;;;;2.70;1.40;;;;;;;11.83;100.00;100129.56;4990545;28;20221;-75
2021/05/09 02:09:40;;;;;;;1.47;1.37;;;;;;;11.91;100.00;100126.19;4990770;28;20220;-73
2021/05/09 02:12:09;;;;;;;2.23;1.60;;;;;;;11.91;100.00;100116.91;4973988;28;20796;-74
2021/05/09 02:14:49;;;;;;;3.30;1.37;;;;;;;11.92;100.00;100123.16;4991094;28;20203;-74
2021/05/09 02:17:16;;;;;;;2.20;1.60;;;;;;;11.86;100.00;100118.09;4990415;28;20309;-74
2021/05/09 02:19:53;;;;;;;2.27;1.63;;;;;;;11.72;100.00;100117.19;4976072;28;20189;-74
2021/05/09 02:22:24;;;;;;;2.03;1.50;;;;;;;11.72;100.00;100120.75;4973968;28;20308;-73
2021/05/09 02:24:50;;;;;;;2.50;1.50;;;;;;;11.82;100.00;100122.50;4958655;28;20189;-73
2021/05/09 02:27:16;;;;;;;2.83;1.50;;;;;;;11.68;100.00;100113.44;4973962;28;20598;-72
2021/05/09 02:29:46;;;;;;;2.10;1.60;;;;;;;11.65;100.00;100108.59;4974445;28;20182;-73
2021/05/09 02:32:15;;;;;;;1.67;1.40;;;;;;;11.63;100.00;100119.78;4989400;28;20217;-73
2021/05/09 02:34:41;;;;;;;1.50;1.40;;;;;;;11.65;100.00;100114.03;4958647;28;20249;-72
2021/05/09 02:37:13;;;;;;;2.87;1.67;;;;;;;11.58;100.00;100116.31;4974104;28;20249;-73
2021/05/09 02:39:39;;;;;;;2.37;1.80;;;;;;;11.52;100.00;100112.03;4974722;28;20260;-72
2021/05/09 02:42:09;;;;;;;1.87;1.60;;;;;;;11.44;100.00;100104.50;5005077;28;20283;-73
2021/05/09 02:44:35;;;;;;;3.17;1.70;;;;;;;11.37;100.00;100104.03;4974359;28;20182;-73
2021/05/09 02:47:01;;;;;;;2.13;1.53;;;;;;;11.35;100.00;100100.78;4973602;28;20232;-74
2021/05/09 02:49:30;;;;;;;3.43;1.60;;;;;;;11.34;100.00;100104.63;4974625;28;20602;-73
2021/05/09 02:51:59;;;;;;;2.40;1.70;;;;;;;11.31;100.00;100113.34;4990187;28;20225;-73
2021/05/09 02:54:30;;;;;;;2.70;1.47;;;;;;;11.27;100.00;100106.06;4957733;28;20213;-74
2021/05/09 02:56:56;;;;;;;2.13;1.53;;;;;;;11.36;100.00;100101.59;4954747;28;20934;-73
2021/05/09 02:59:22;;;;;;;4.03;1.80;;;;;;;11.27;100.00;100109.59;4954591;28;20245;-72
2021/05/09 03:01:48;;;;;;;2.97;1.83;;;;;;;11.25;100.00;100109.06;4969237;28;20233;-73
2021/05/09 03:04:14;;;;;;;1.60;1.50;;;;;;;11.18;100.00;100103.16;4954718;28;20665;-74
2021/05/09 03:06:47;;;;;;;2.63;1.47;;;;;;;11.20;100.00;100109.13;4954460;28;20229;-73
2021/05/09 03:09:15;;;;;;;1.50;1.40;;;;;;;11.26;100.00;100107.97;4970762;28;20731;-74
2021/05/09 03:11:48;;;;;;;2.70;1.60;;;;;;;11.29;100.00;100112.81;4969815;28;20284;-73
2021/05/09 03:14:14;;;;;;;2.67;1.90;;;;;;;11.10;100.00;100108.44;4970963;28;20245;-75
2021/05/09 03:16:42;;;;;;;1.80;1.50;;;;;;;11.08;100.00;100109.81;4970157;28;20230;-74
2021/05/09 03:19:10;;;;;;;2.40;1.60;;;;;;;11.04;100.00;100108.78;4970453;28;20209;-74
2021/05/09 03:21:41;;;;;;;2.27;1.57;;;;;;;11.09;100.00;100111.44;4953603;28;20241;-74
2021/05/09 03:24:07;;;;;;;2.20;1.30;;;;;;;11.13;100.00;100114.13;4954613;28;20281;-74
2021/05/09 03:26:33;;;;;;;2.40;1.40;;;;;;;11.04;100.00;100114.22;4970182;28;20226;-74
2021/05/09 03:29:01;;;;;;;1.77;1.40;;;;;;;11.05;100.00;100110.41;4986208;28;20955;-74
2021/05/09 03:31:26;;;;;;;1.80;1.70;;;;;;;11.09;100.00;100106.81;4971099;28;20222;-74
2021/05/09 03:33:59;;;;;;;2.67;1.33;;;;;;;11.14;100.00;100102.13;4953583;28;20297;-74
2021/05/09 03:36:25;;;;;;;1.87;1.30;;;;;;;11.00;100.00;100113.97;4969791;28;20249;-74
2021/05/09 03:38:51;;;;;;;2.03;1.67;;;;;;;11.06;100.00;100114.72;4954213;28;20212;-73
2021/05/09 03:41:20;;;;;;;1.77;1.50;;;;;;;11.00;100.00;100113.97;4969736;28;20730;-74
2021/05/09 03:43:49;;;;;;;1.80;1.70;;;;;;;10.93;100.00;100107.25;4953953;28;20198;-74
2021/05/09 03:46:15;;;;;;;2.47;1.40;;;;;;;10.85;100.00;100105.19;4953522;28;20225;-74
2021/05/09 03:48:41;;;;;;;3.57;2.20;;;;;;;10.89;100.00;100103.50;4969900;28;20206;-74
2021/05/09 03:51:11;;;;;;;1.73;1.63;;;;;;;10.72;100.00;100100.41;4970202;28;20234;-74
2021/05/09 03:53:44;;;;;;;2.50;1.80;;;;;;;10.66;100.00;100111.59;4953033;28;20214;-75
2021/05/09 03:56:14;;;;;;;2.00;1.70;;;;;;;10.62;100.00;100103.25;4970952;28;20245;-73
2021/05/09 03:58:39;;;;;;;1.93;1.83;;;;;;;10.70;100.00;100091.75;4970390;28;20656;-74
2021/05/09 04:01:05;;;;;;;1.70;1.50;;;;;;;10.64;100.00;100098.34;4969353;28;20222;-73
2021/05/09 04:03:33;;;;;;;2.37;1.60;;;;;;;10.69;100.00;100095.53;4969257;28;20568;-73
2021/05/09 04:06:01;;;;;;;1.67;1.40;;;;;;;10.80;100.00;100091.63;4969428;28;20652;-73
2021/05/09 04:08:33;;;;;;;2.03;1.60;;;;;;;11.01;100.00;100090.34;4970087;28;20209;-74
2021/05/09 04:11:04;;;;;;;1.80;1.60;;;;;;;11.55;100.00;100085.03;4986921;28;20224;-74
2021/05/09 04:13:42;;;;;;;1.77;1.60;;;;;;;11.90;99.68;100086.47;4972305;28;20217;-74
2021/05/09 04:16:10;;;;;;;2.83;1.60;;;;;;;11.91;97.43;100094.34;4972646;28;20257;-74
2021/05/09 04:18:38;;;;;;;2.73;1.40;;;;;;;11.94;96.19;100094.56;4989396;28;20246;-74
2021/05/09 04:21:08;;;;;;;1.93;1.60;;;;;;;12.06;95.10;100091.41;4972532;28;20226;-72
2021/05/09 04:23:34;;;;;;;1.73;1.40;;;;;;;11.87;95.48;100087.03;4972669;28;20178;-74
2021/05/09 04:26:02;;;;;;;2.20;1.60;;;;;;;11.96;96.06;100092.34;4988628;28;20229;-74
2021/05/09 04:28:32;;;;;;;1.93;1.60;;;;;;;12.65;92.67;100092.31;4990318;28;20357;-72
2021/05/09 04:31:03;;;;;;;2.70;1.50;;;;;;;12.74;90.07;100083.94;4988688;28;20247;-73
2021/05/09 04:33:28;;;;;;;1.47;1.37;;;;;;;12.92;88.70;100074.94;4987972;28;20363;-73
2021/05/09 04:35:54;;;;;;;3.90;1.50;;;;;;;12.80;88.20;100082.81;4969248;28;20222;-73
2021/05/09 04:38:20;;;;;;;1.73;1.50;;;;;;;12.73;89.46;100079.63;4953575;28;20207;-73
2021/05/09 04:40:46;;;;;;;1.70;1.60;;;;;;;13.14;88.42;100077.78;4972140;28;20257;-73
2021/05/09 04:43:13;;;;;;;2.67;1.60;;;;;;;13.38;85.92;100072.91;4972004;28;20194;-73
2021/05/09 04:45:39;;;;;;;2.53;1.60;;;;;;;13.41;85.30;100069.59;4988519;28;20222;-73
2021/05/09 04:48:05;;;;;;;1.77;1.43;;;;;;;13.44;83.65;100067.03;4956725;28;20209;-74
2021/05/09 04:50:31;;;;;;;2.47;1.50;;;;;;;13.23;81.90;100075.97;4988336;28;20214;-74
2021/05/09 04:52:57;;;;;;;3.00;1.40;;;;;;;13.41;81.40;100078.56;4955932;28;20731;-73
2021/05/09 04:55:22;;;;;;;1.27;1.17;;;;;;;14.37;76.91;100077.72;4956218;28;20233;-74
2021/05/09 04:57:50;;;;;;;1.53;1.40;;;;;;;15.15;72.45;100068.53;4957542;28;20198;-73
2021/05/09 05:00:18;;;;;;;1.77;1.20;;;;;;;15.73;68.07;100069.00;4971938;28;20185;-75
2021/05/09 05:02:44;;;;;;;2.17;1.30;;;;;;;15.69;66.69;100076.25;4985096;28;20192;-73
2021/05/09 05:05:11;;;;;;;3.53;1.30;;;;;;;15.63;65.92;100070.13;4979376;28;20281;-74
2021/05/09 05:07:37;;;;;;;1.40;1.30;;;;;;;16.24;63.91;100067.94;4995137;28;20205;-74
2021/05/09 05:10:10;;;;;;;3.97;1.80;;;;;;;16.34;62.16;100064.91;4996088;28;20255;-73
2021/05/09 05:12:35;;;;;;;1.53;1.43;;;;;;;16.29;61.62;100067.78;5010866;28;20314;-74
2021/05/09 05:15:01;;;;;;;2.33;1.33;;;;;;;16.05;61.70;100072.91;4979661;28;20237;-75
2021/05/09 05:17:27;;;;;;;3.53;1.40;;;;;;;15.97;63.20;100067.41;4978609;28;20231;-74
2021/05/09 05:19:55;;;;;;;1.37;1.10;;;;;;;15.81;61.44;100072.56;5012230;28;20188;-73
2021/05/09 05:22:21;;;;;;;1.43;1.30;;;;;;;16.08;61.26;100061.31;4994226;28;20233;-72
2021/05/09 05:24:46;;;;;;;1.67;1.03;;;;;;;15.44;63.56;100066.06;4995802;28;20180;-74
2021/05/09 05:27:12;;;;;;;1.93;1.30;;;;;;;15.04;65.55;100060.91;4978713;28;20695;-74
2021/05/09 05:29:37;;;;;;;1.90;1.30;;;;;;;14.39;70.12;100069.22;5011265;28;20331;-74
2021/05/09 05:32:08;;;;;;;1.43;1.23;;;;;;;14.00;72.65;100077.22;5007224;28;20647;-73
2021/05/09 05:34:34;;;;;;;2.03;1.40;;;;;;;13.95;72.50;100074.59;4991823;28;20582;-75
2021/05/09 05:36:59;;;;;;;1.40;1.10;;;;;;;13.91;74.11;100078.28;4991069;28;20233;-73
2021/05/09 05:39:25;;;;;;;1.93;1.20;;;;;;;13.81;76.03;100075.78;4993131;28;20232;-73
2021/05/09 05:41:54;;;;;;;2.30;1.10;;;;;;;13.91;77.34;100072.81;4990047;28;20649;-74
2021/05/09 05:44:19;;;;;;;1.33;1.20;;;;;;;13.80;78.05;100071.44;4991953;28;20197;-74
2021/05/09 05:46:45;;;;;;;2.57;1.30;;;;;;;13.81;77.81;100075.78;5007468;28;20216;-74
2021/05/09 05:49:13;;;;;;;1.30;1.20;;;;;;;13.88;77.37;100067.97;4982579;28;20590;-74
2021/05/09 05:51:39;;;;;;;2.70;1.20;;;;;;;14.05;75.54;100073.63;5009475;28;20629;-76
2021/05/09 05:54:09;;;;;;;2.57;1.40;;;;;;;14.20;76.32;100065.06;5011536;28;20710;-76
2021/05/09 05:56:35;;;;;;;1.90;1.30;;;;;;;14.39;75.62;100069.22;4994983;28;20282;-73
2021/05/09 05:59:00;;;;;;;1.53;1.13;;;;;;;14.42;74.12;100074.88;4962437;28;20209;-74
2021/05/09 06:01:28;;;;;;;2.17;1.10;;;;;;;14.44;73.45;100078.09;4994595;28;20231;-74
2021/05/09 06:03:54;;;;;;;1.43;1.30;;;;;;;14.75;73.69;100073.47;4993997;28;20181;-73
2021/05/09 06:06:22;;;;;;;1.30;1.10;;;;;;;14.90;74.01;100064.84;4994540;28;20228;-73
2021/05/09 06:08:51;;;;;;;1.20;1.10;;;;;;;14.86;73.31;100074.81;5011098;28;20220;-74
2021/05/09 06:11:16;;;;;;;2.30;1.20;;;;;;;14.88;73.51;100073.38;4962874;28;20241;-73
2021/05/09 06:13:42;;;;;;;1.77;1.20;;;;;;;14.96;73.25;100069.06;4973997;28;20248;-74
2021/05/09 06:16:08;;;;;;;1.47;1.20;;;;;;;15.17;73.56;100070.97;4955054;28;20276;-74
2021/05/09 06:18:34;;;;;;;1.10;1.00;;;;;;;15.36;73.00;100074.25;4955416;28;20209;-74
2021/05/09 06:21:02;;;;;;;1.60;1.10;;;;;;;15.56;72.70;100074.47;4979716;28;20603;-74
2021/05/09 06:23:32;;;;;;;1.20;1.10;;;;;;;15.79;71.14;100074.84;4992083;28;20272;-74
2021/05/09 06:26:00;;;;;;;1.48;1.15;;;;;;;15.78;72.51;100064.19;4990878;28;20243;-74
2021/05/09 06:28:28;;;;;;;1.10;1.00;;;;;;;16.05;71.75;100075.66;4991830;28;20225;-74
2021/05/09 06:30:53;;;;;;;3.42;1.10;;;;;;;16.12;69.53;100081.47;4974281;28;20221;-74
2021/05/09 06:33:21;;;;;;;2.08;1.33;;;;;;;16.28;69.35;100077.97;4958568;28;20672;-73
2021/05/09 06:35:49;;;;;;;1.92;1.20;;;;;;;16.20;69.61;100076.00;4974139;28;20233;-74
2021/05/09 06:38:15;;;;;;;1.75;1.30;;;;;;;16.33;68.07;100071.50;4975163;28;20201;-74
2021/05/09 06:40:42;;;;;;;1.48;1.30;;;;;;;16.58;69.02;100069.53;4957373;28;20268;-75
2021/05/09 06:43:08;;;;;;;2.95;1.00;;;;;;;16.61;69.87;100071.63;4957579;28;20189;-73
2021/05/09 06:45:36;;;;;;;1.58;1.10;;;;;;;16.67;66.33;100064.81;4973910;28;20221;-74
2021/05/09 06:48:03;;;;;;;1.95;1.13;;;;;;;16.87;67.45;100068.78;4958259;28;20786;-72
2021/05/09 06:50:30;;;;;;;2.72;1.20;;;;;;;16.90;68.11;100063.47;4971420;28;20221;-71
2021/05/09 06:52:58;;;;;;;1.20;1.10;;;;;;;17.01;66.12;100070.22;4973493;28;20188;-72
2021/05/09 06:55:29;;;;;;;1.85;1.13;;;;;;;17.05;64.63;100062.91;4989246;28;20236;-72
2021/05/09 06:57:55;;;;;;;1.90;1.10;;;;;;;17.10;65.03;100063.56;4990233;28;20240;-71
2021/05/09 07:00:21;;;;;;;2.05;1.10;;;;;;;17.12;67.35;100065.97;4973307;28;20655;-72
2021/05/09 07:02:51;;;;;;;1.20;1.10;;;;;;;17.32;65.48;100066.06;4970748;28;20279;-72
2021/05/09 07:05:17;;;;;;;1.30;1.20;;;;;;;17.52;66.69;100066.13;4954687;28;20633;-72
2021/05/09 07:07:50;;;;;;;1.75;1.05;;;;;;;17.65;67.37;100061.53;4974012;28;20210;-71
2021/05/09 07:10:16;;;;;;;1.63;1.00;;;;;;;17.87;64.73;100057.31;4971897;28;20194;-72
2021/05/09 07:12:42;;;;;;;1.60;1.15;;;;;;;18.24;62.59;100067.41;4958610;28;20196;-71
2021/05/09 07:15:09;;;;;;;3.58;1.00;;;;;;;18.27;62.18;100056.53;4972934;28;20202;-71
2021/05/09 07:17:38;;;;;;;2.30;1.20;;;;;;;18.34;61.61;100051.31;4973712;28;20193;-71
2021/05/09 07:20:04;;;;;;;1.45;0.95;;;;;;;18.44;61.25;100056.38;4990112;28;20209;-72
2021/05/09 07:22:40;;;;;;;1.10;1.00;;;;;;;18.54;62.06;100058.72;4988661;28;20221;-72
2021/05/09 07:25:08;;;;;;;2.20;1.20;;;;;;;18.54;59.25;100048.53;4990143;28;20178;-72
2021/05/09 07:27:39;;;;;;;1.45;1.08;;;;;;;18.40;62.43;100044.44;4973685;28;20181;-72
2021/05/09 07:30:05;;;;;;;1.38;1.05;;;;;;;18.65;61.26;100035.16;4989440;28;20186;-72
2021/05/09 07:32:31;;;;;;;2.13;1.10;;;;;;;18.51;62.73;100045.63;4969235;28;20214;-72
2021/05/09 07:34:57;;;;;;;1.90;1.13;;;;;;;18.57;64.16;100053.38;4954143;28;20245;-71
2021/05/09 07:37:22;;;;;;;2.80;1.27;;;;;;;18.51;63.16;100040.16;4972537;28;20229;-72
2021/05/09 07:39:48;;;;;;;1.42;1.10;;;;;;;18.70;61.73;100038.50;4973382;28;20186;-73
2021/05/09 07:42:16;;;;;;;1.20;1.10;;;;;;;18.81;61.73;100044.34;4972163;28;20233;-72
2021/05/09 07:44:41;;;;;;;1.38;1.10;;;;;;;18.73;62.96;100043.31;4973551;28;20255;-72
2021/05/09 07:47:12;;;;;;;1.75;1.17;;;;;;;18.99;62.68;100035.59;4973194;28;20225;-72
2021/05/09 07:49:39;;;;;;;2.40;1.30;;;;;;;18.93;62.41;100034.97;4958083;28;20217;-72
2021/05/09 07:52:05;;;;;;;1.38;1.02;;;;;;;19.04;61.10;100038.91;4971681;28;20279;-72
2021/05/09 07:54:31;;;;;;;1.45;1.10;;;;;;;19.09;62.63;100033.19;4970522;28;20194;-72
2021/05/09 07:56:57;;;;;;;1.05;1.00;;;;;;;19.24;60.73;100042.72;4989237;28;20348;-73
2021/05/09 07:59:22;;;;;;;2.67;1.27;;;;;;;19.32;62.02;100045.34;4990036;28;20223;-71
2021/05/09 08:01:48;;;;;;;1.42;1.10;;;;;;;19.40;60.20;100047.22;4988486;28;20229;-71
2021/05/09 08:04:14;;;;;;;1.90;1.20;;;;;;;19.39;60.08;100045.59;4989746;28;20189;-72
2021/05/09 08:06:42;;;;;;;2.20;1.00;;;;;;;19.49;61.18;100050.66;4983721;28;20217;-72
2021/05/09 08:09:07;;;;;;;3.30;1.00;;;;;;;19.72;60.09;100050.66;4963914;28;20234;-71
2021/05/09 08:11:33;;;;;;;1.63;1.08;;;;;;;19.67;57.30;100048.13;4981145;28;20288;-71
2021/05/09 08:14:01;;;;;;;1.65;1.20;;;;;;;19.75;59.88;100055.44;4972050;28;20217;-72
2021/05/09 08:16:29;;;;;;;3.50;1.13;;;;;;;19.90;61.59;100046.50;4989032;28;20217;-71
2021/05/09 08:18:54;;;;;;;1.42;1.08;;;;;;;20.16;58.31;100039.44;4971476;28;20220;-73
2021/05/09 08:21:20;;;;;;;3.72;1.10;;;;;;;20.04;58.30;100044.16;4985357;28;20225;-71
2021/05/09 08:23:48;;;;;;;2.10;1.25;;;;;;;20.20;58.48;100039.50;4988403;28;20723;-71
2021/05/09 08:26:13;;;;;;;1.00;0.80;;;;;;;20.33;59.73;100041.88;4970364;28;20225;-73
2021/05/09 08:28:44;;;;;;;13.38;9.00;;;;;;;20.62;56.79;100042.38;4972822;28;20236;-72
2021/05/09 08:31:16;;;;;;;2.08;1.50;;;;;;;20.66;55.42;100037.72;4980707;28;20743;-71
2021/05/09 08:33:48;;;;;;;4.65;1.30;;;;;;;20.64;56.35;100033.69;4958251;28;20226;-71
2021/05/09 08:36:15;;;;;;;2.28;1.17;;;;;;;21.05;57.82;100029.31;4965746;28;20218;-71
2021/05/09 08:38:40;;;;;;;2.88;1.13;;;;;;;20.93;54.88;100028.59;4976269;28;20197;-71
2021/05/09 08:41:08;;;;;;;1.67;1.20;;;;;;;21.15;56.56;100012.19;4970255;28;20217;-71
2021/05/09 08:43:33;;;;;;;2.25;1.20;;;;;;;21.29;57.36;100010.59;4990685;28;20192;-71
2021/05/09 08:46:04;;;;;;;2.88;0.90;;;;;;;21.45;55.48;99994.81;4962735;28;20222;-72
2021/05/09 08:48:29;;;;;;;1.27;1.10;;;;;;;21.71;52.97;100000.56;4938204;28;20214;-70
2021/05/09 08:50:55;;;;;;;2.97;1.10;;;;;;;21.56;53.11;99990.34;4934886;28;20659;-71
2021/05/09 08:53:21;;;;;;;1.98;1.10;;;;;;;21.71;54.65;100004.13;4976750;28;20697;-73
2021/05/09 08:55:46;;;;;;;2.97;1.20;;;;;;;21.82;52.14;99998.84;4973285;28;20232;-72
2021/05/09 08:58:12;;;;;;;2.28;1.20;;;;;;;22.06;52.26;99991.84;4986062;28;20216;-73
2021/05/09 09:00:40;;;;;;;4.45;1.05;;;;;;;22.05;50.51;99992.19;4991138;28;20889;-73
2021/05/09 09:03:06;;;;;;;2.25;1.10;;;;;;;22.38;50.63;99978.69;4988585;28;20309;-72
2021/05/09 09:05:42;;;;;;;2.10;1.48;;;;;;;21.96;50.77;99982.53;4979755;28;20221;-76
2021/05/09 09:08:11;;;;;;;1.02;0.90;;;;;;;22.15;51.51;99992.47;4988590;28;20738;-76
2021/05/09 09:10:43;;;;;;;2.13;1.10;;;;;;;22.16;51.20;99973.88;4981768;28;20218;-71
2021/05/09 09:13:21;;;;;;;3.22;1.30;;;;;;;22.44;50.37;99973.28;4990051;28;20218;-72
2021/05/09 09:16:00;;;;;;;1.98;1.08;;;;;;;22.39;49.06;99969.22;4972309;28;20236;-72
2021/05/09 09:18:44;;;;;;;2.45;0.93;;;;;;;22.68;50.08;99969.38;4974040;28;20229;-73
2021/05/09 09:21:28;;;;;;;2.05;1.17;;;;;;;22.66;49.42;99964.22;4977013;28;20224;-73
2021/05/09 09:24:10;;;;;;;2.17;1.33;;;;;;;22.62;48.24;99960.59;4959828;28;20682;-73
2021/05/09 09:26:52;;;;;;;1.15;0.90;;;;;;;22.64;48.31;99965.75;4992222;28;20222;-71
2021/05/09 09:29:36;;;;;;;1.13;0.80;;;;;;;22.63;47.05;99964.94;4992182;28;20691;-73
2021/05/09 09:32:09;;;;;;;1.50;1.10;;;;;;;22.96;48.29;99957.66;4990817;28;20221;-71
2021/05/09 09:34:40;;;;;;;2.42;1.10;;;;;;;22.86;45.67;99944.41;4991478;28;20213;-72
2021/05/09 09:37:06;;;;;;;2.38;0.98;;;;;;;22.76;44.22;99946.19;4992582;28;20228;-72
2021/05/09 09:39:48;;;;;;;1.25;1.00;;;;;;;22.91;47.13;99949.66;4988771;28;20206;-72
2021/05/09 09:42:14;;;;;;;1.77;1.10;;;;;;;23.02;45.93;99945.09;4987142;28;20252;-72
2021/05/09 09:44:40;;;;;;;1.55;0.82;;;;;;;23.28;45.22;99943.13;4987558;28;20272;-71
2021/05/09 09:47:08;;;;;;;1.67;0.98;;;;;;;23.40;46.40;99950.44;4958163;28;20676;-73
2021/05/09 09:49:37;;;;;;;2.45;1.00;;;;;;;23.56;45.81;99940.00;4989870;28;20344;-74
2021/05/09 09:52:04;;;;;;;1.08;0.90;;;;;;;24.18;41.41;99933.31;4984320;28;20590;-73
2021/05/09 09:54:34;;;;;;;0.98;0.80;;;;;;;24.08;41.45;99922.88;4970334;28;20201;-73
2021/05/09 09:57:04;;;;;;;1.67;1.00;;;;;;;24.17;41.81;99917.81;4989275;28;20236;-75
2021/05/09 09:59:32;;;;;;;1.90;1.00;;;;;;;23.82;44.46;99924.91;4989130;28;20330;-74
2021/05/09 10:01:58;;;;;;;1.70;1.02;;;;;;;23.97;45.29;99924.72;4989886;28;20639;-74
2021/05/09 10:04:26;;;;;;;1.40;0.95;;;;;;;24.33;44.22;99923.19;4991818;28;20659;-73
2021/05/09 10:06:52;;;;;;;1.40;0.80;;;;;;;24.64;43.18;99907.63;4974786;28;20320;-73
2021/05/09 10:09:17;;;;;;;1.58;1.08;;;;;;;24.46;42.24;99908.63;4991418;28;20202;-72
2021/05/09 10:11:47;;;;;;;1.92;0.90;;;;;;;24.23;42.81;99909.94;4989799;28;20745;-72
2021/05/09 10:14:12;;;;;;;2.08;0.80;;;;;;;24.45;43.88;99909.81;5007822;28;20606;-71
2021/05/09 10:16:40;;;;;;;4.45;1.00;;;;;;;24.65;42.57;99898.13;4970864;28;20233;-73
2021/05/09 10:19:13;;;;;;;1.17;0.73;;;;;;;24.71;42.15;99904.94;4972113;28;20203;-72
2021/05/09 10:21:42;;;;;;;2.38;1.00;;;;;;;24.53;40.56;99905.94;4983525;28;20241;-72
2021/05/09 10:24:15;;;;;;;1.48;0.77;;;;;;;24.50;42.22;99896.38;5023604;28;20185;-73
2021/05/09 10:27:04;;;;;;;2.13;0.88;;;;;;;24.65;41.04;99887.00;4990741;28;20224;-72
2021/05/09 10:29:35;;;;;;;2.10;0.90;;;;;;;24.74;39.48;99895.81;5006737;28;20224;-72
2021/05/09 10:32:12;;;;;;;1.70;0.80;;;;;;;24.93;42.29;99876.94;5006044;28;20258;-72
2021/05/09 10:34:56;;;;;;;2.03;0.80;;;;;;;25.23;43.51;99886.69;5007115;28;20241;-73
2021/05/09 10:37:46;;;;;;;1.00;0.90;;;;;;;25.14;41.50;99871.53;4989981;28;20236;-73
2021/05/09 10:40:27;;;;;;;1.35;0.80;;;;;;;25.38;41.45;99876.44;5004108;28;20245;-73
2021/05/09 10:43:05;;;;;;;2.80;1.00;;;;;;;25.09;41.91;99885.00;4983541;28;20185;-74
2021/05/09 10:45:35;;;;;;;1.00;0.90;;;;;;;25.11;42.07;99894.56;4992619;28;20224;-74
2021/05/09 10:48:13;;;;;;;1.52;0.80;;;;;;;24.93;41.12;99888.06;4993468;28;20698;-73
2021/05/09 10:50:39;;;;;;;1.35;0.70;;;;;;;25.25;40.57;99878.75;4990931;28;20214;-75
2021/05/09 10:53:05;;;;;;;1.55;1.42;;;;;;;25.49;39.61;99883.66;4990661;28;20174;-74
2021/05/09 10:55:43;;;;;;;2.33;1.52;;;;;;;25.32;39.73;99884.38;4973671;28;20869;-73
2021/05/09 10:58:10;;;;;;;1.75;1.27;;;;;;;25.34;38.21;99882.00;4992012;28;20717;-73
2021/05/09 11:00:54;;;;;;;3.00;2.15;;;;;;;25.42;37.68;99889.22;4979019;28;20593;-73
2021/05/09 11:03:39;;;;;;;2.00;1.77;;;;;;;25.18;38.03;99884.28;4987514;28;20190;-74
2021/05/09 11:06:08;;;;;;;1.45;1.33;;;;;;;25.40;39.77;99877.69;4976390;28;20225;-74
2021/05/09 11:08:52;;;;;;;11.65;10.57;;;;;;;25.59;38.95;99874.63;4977921;28;20209;-74
2021/05/09 11:11:21;;;;;;;2.03;1.20;;;;;;;26.06;37.71;99864.88;4990243;28;20229;-74
2021/05/09 11:13:56;;;;;;;1.10;0.77;;;;;;;26.14;38.81;99858.13;4974738;28;20224;-74
2021/05/09 11:16:25;;;;;;;2.88;2.67;;;;;;;26.29;37.93;99856.19;4991897;28;20225;-72
2021/05/09 11:19:03;;;;;;;0.95;0.82;;;;;;;26.25;37.57;99850.63;4959900;28;20228;-73
2021/05/09 11:21:32;;;;;;;1.30;0.85;;;;;;;26.42;36.55;99855.41;4957823;28;20737;-73
2021/05/09 11:23:58;;;;;;;1.90;0.80;;;;;;;26.32;36.74;99839.50;4973194;28;20186;-73
2021/05/09 11:26:28;;;;;;;2.08;0.90;;;;;;;26.29;36.36;99845.06;4955232;28;20222;-72
2021/05/09 11:29:15;;;;;;;0.70;0.70;;;;;;;26.29;37.32;99839.47;4971491;28;20303;-73
2021/05/09 11:31:59;;;;;;;1.65;0.80;;;;;;;26.46;36.97;99843.06;4989204;28;20227;-73